sensor_id;sensor_type;location;lat;lon;timestamp;pressure;altitude;pressure_sealevel;temperature;humidity
74613;BME280;63119;51.788;8.824;2023-12-20T00:00:34;99732.28;;;8.37;100.00
74613;BME280;63119;51.788;8.824;2023-12-20T00:02:59;99734.66;;;8.28;100.00
74613;BME280;63119;51.788;8.824;2023-12-20T00:05:25;99725.97;;;8.40;100.00
74613;BME280;63119;51.788;8.824;2023-12-20T00:07:50;99723.34;;;8.25;100.00
74613;BME280;63119;51.788;8.824;2023-12-20T00:10:15;99719.69;;;8.28;100.00
74613;BME280;63119;51.788;8.824;2023-12-20T00:12:40;99715.63;;;8.37;100.00
74613;BME280;63119;51.788;8.824;2023-12-20T00:15:06;99717.91;;;8.29;100.00
74613;BME280;63119;51.788;8.824;2023-12-20T00:17:31;99723.72;;;8.34;100.00
74613;BME280;63119;51.788;8.824;2023-12-20T00:19:57;99720.59;;;8.27;100.00
74613;BME280;63119;51.788;8.824;2023-12-20T00:22:22;99721.22;;;8.32;100.00
74613;BME280;63119;51.788;8.824;2023-12-20T00:24:47;99716.97;;;8.30;100.00
74613;BME280;63119;51.788;8.824;2023-12-20T00:27:12;99720.44;;;8.16;100.00
74613;BME280;63119;51.788;8.824;2023-12-20T00:29:38;99727.03;;;8.23;100.00
74613;BME280;63119;51.788;8.824;2023-12-20T00:32:03;99729.66;;;8.23;100.00
74613;BME280;63119;51.788;8.824;2023-12-20T00:34:29;99737.75;;;8.20;100.00
74613;BME280;63119;51.788;8.824;2023-12-20T00:36:54;99735.50;;;8.28;100.00
74613;BME280;63119;51.788;8.824;2023-12-20T00:39:20;99734.66;;;8.28;100.00
74613;BME280;63119;51.788;8.824;2023-12-20T00:41:45;99726.38;;;8.34;100.00
74613;BME280;63119;51.788;8.824;2023-12-20T00:44:10;99740.78;;;8.28;100.00
74613;BME280;63119;51.788;8.824;2023-12-20T00:46:35;99734.09;;;8.37;100.00
74613;BME280;63119;51.788;8.824;2023-12-20T00:49:01;99731.63;;;8.34;100.00
74613;BME280;63119;51.788;8.824;2023-12-20T00:51:26;99754.63;;;8.32;100.00
74613;BME280;63119;51.788;8.824;2023-12-20T00:53:51;99748.69;;;8.28;100.00
74613;BME280;63119;51.788;8.824;2023-12-20T00:56:20;99744.31;;;8.27;100.00
74613;BME280;63119;51.788;8.824;2023-12-20T00:58:45;99741.13;;;8.22;100.00
74613;BME280;63119;51.788;8.824;2023-12-20T01:01:10;99756.66;;;8.12;100.00
74613;BME280;63119;51.788;8.824;2023-12-20T01:03:35;99758.38;;;8.13;100.00
74613;BME280;63119;51.788;8.824;2023-12-20T01:06:01;99755.38;;;8.05;100.00
74613;BME280;63119;51.788;8.824;2023-12-20T01:08:26;99756.78;;;8.11;100.00
74613;BME280;63119;51.788;8.824;2023-12-20T01:10:52;99751.47;;;7.97;100.00
74613;BME280;63119;51.788;8.824;2023-12-20T01:13:17;99754.41;;;7.92;100.00
74613;BME280;63119;51.788;8.824;2023-12-20T01:15:42;99753.06;;;7.85;100.00
74613;BME280;63119;51.788;8.824;2023-12-20T01:18:07;99748.84;;;7.97;100.00
74613;BME280;63119;51.788;8.824;2023-12-20T01:20:33;99754.28;;;7.94;100.00
74613;BME280;63119;51.788;8.824;2023-12-20T01:22:58;99760.91;;;7.87;100.00
74613;BME280;63119;51.788;8.824;2023-12-20T01:25:23;99756.66;;;7.84;100.00
74613;BME280;63119;51.788;8.824;2023-12-20T01:27:48;99757.84;;;7.79;100.00
74613;BME280;63119;51.788;8.824;2023-12-20T01:30:14;99750.91;;;7.78;100.00
74613;BME280;63119;51.788;8.824;2023-12-20T01:32:40;99754.47;;;7.77;100.00
74613;BME280;63119;51.788;8.824;2023-12-20T01:35:05;99760.28;;;7.67;100.00
74613;BME280;63119;51.788;8.824;2023-12-20T01:37:30;99762.38;;;7.62;100.00
74613;BME280;63119;51.788;8.824;2023-12-20T01:39:56;99760.28;;;7.67;100.00
74613;BME280;63119;51.788;8.824;2023-12-20T01:42:21;99757.91;;;7.63;100.00
74613;BME280;63119;51.788;8.824;2023-12-20T01:44:47;99766.47;;;7.52;100.00
74613;BME280;63119;51.788;8.824;2023-12-20T01:47:13;99758.97;;;7.60;100.00
74613;BME280;63119;51.788;8.824;2023-12-20T01:49:38;99770.25;;;7.62;100.00
74613;BME280;63119;51.788;8.824;2023-12-20T01:52:04;99767.81;;;7.59;100.00
74613;BME280;63119;51.788;8.824;2023-12-20T01:54:30;99767.28;;;7.68;100.00
74613;BME280;63119;51.788;8.824;2023-12-20T01:56:55;99773.72;;;7.63;100.00
74613;BME280;63119;51.788;8.824;2023-12-20T01:59:21;99774.22;;;7.69;100.00
74613;BME280;63119;51.788;8.824;2023-12-20T02:01:47;99783.72;;;7.72;100.00
74613;BME280;63119;51.788;8.824;2023-12-20T02:04:12;99777.81;;;7.68;100.00
74613;BME280;63119;51.788;8.824;2023-12-20T02:06:39;99776.63;;;7.58;100.00
74613;BME280;63119;51.788;8.824;2023-12-20T02:09:05;99785.28;;;7.60;100.00
74613;BME280;63119;51.788;8.824;2023-12-20T02:11:30;99789.13;;;7.55;100.00
74613;BME280;63119;51.788;8.824;2023-12-20T02:13:56;99786.13;;;7.61;100.00
74613;BME280;63119;51.788;8.824;2023-12-20T02:16:21;99781.91;;;7.58;100.00
74613;BME280;63119;51.788;8.824;2023-12-20T02:18:47;99781.03;;;7.44;100.00
74613;BME280;63119;51.788;8.824;2023-12-20T02:21:12;99776.81;;;7.55;100.00
74613;BME280;63119;51.788;8.824;2023-12-20T02:23:37;99773.06;;;7.59;100.00
74613;BME280;63119;51.788;8.824;2023-12-20T02:26:04;99761.69;;;7.59;100.00
74613;BME280;63119;51.788;8.824;2023-12-20T02:28:29;99761.78;;;7.57;100.00
74613;BME280;63119;51.788;8.824;2023-12-20T02:30:55;99766.97;;;7.59;100.00
74613;BME280;63119;51.788;8.824;2023-12-20T02:33:21;99766.59;;;7.65;100.00
74613;BME280;63119;51.788;8.824;2023-12-20T02:35:46;99769.84;;;7.54;100.00
74613;BME280;63119;51.788;8.824;2023-12-20T02:38:12;99766.53;;;7.51;100.00
74613;BME280;63119;51.788;8.824;2023-12-20T02:40:37;99760.16;;;7.41;100.00
74613;BME280;63119;51.788;8.824;2023-12-20T02:43:02;99761.25;;;7.37;100.00
74613;BME280;63119;51.788;8.824;2023-12-20T02:45:28;99749.69;;;7.39;99.53
74613;BME280;63119;51.788;8.824;2023-12-20T02:47:53;99754.59;;;7.45;99.29
74613;BME280;63119;51.788;8.824;2023-12-20T02:50:18;99757.59;;;7.39;98.83
74613;BME280;63119;51.788;8.824;2023-12-20T02:52:47;99754.41;;;7.48;98.64
74613;BME280;63119;51.788;8.824;2023-12-20T02:55:12;99762.97;;;7.38;98.84
74613;BME280;63119;51.788;8.824;2023-12-20T02:57:37;99768.72;;;7.44;98.27
74613;BME280;63119;51.788;8.824;2023-12-20T03:00:08;99761.63;;;7.45;97.85
74613;BME280;63119;51.788;8.824;2023-12-20T03:02:34;99756.09;;;7.35;99.19
74613;BME280;63119;51.788;8.824;2023-12-20T03:04:59;99747.91;;;7.40;98.54
74613;BME280;63119;51.788;8.824;2023-12-20T03:07:25;99748.94;;;7.37;97.58
74613;BME280;63119;51.788;8.824;2023-12-20T03:09:50;99756.84;;;7.37;98.48
74613;BME280;63119;51.788;8.824;2023-12-20T03:12:15;99753.91;;;7.42;98.23
74613;BME280;63119;51.788;8.824;2023-12-20T03:14:41;99760.84;;;7.29;98.19
74613;BME280;63119;51.788;8.824;2023-12-20T03:17:06;99764.41;;;7.28;98.03
74613;BME280;63119;51.788;8.824;2023-12-20T03:19:31;99755.00;;;7.24;97.90
74613;BME280;63119;51.788;8.824;2023-12-20T03:21:56;99747.28;;;7.21;98.83
74613;BME280;63119;51.788;8.824;2023-12-20T03:24:22;99752.66;;;7.19;98.62
74613;BME280;63119;51.788;8.824;2023-12-20T03:26:47;99751.63;;;7.22;98.58
74613;BME280;63119;51.788;8.824;2023-12-20T03:29:12;99750.94;;;7.18;98.96
74613;BME280;63119;51.788;8.824;2023-12-20T03:31:37;99747.59;;;7.30;97.77
74613;BME280;63119;51.788;8.824;2023-12-20T03:34:02;99744.28;;;7.27;98.25
74613;BME280;63119;51.788;8.824;2023-12-20T03:36:28;99740.59;;;7.15;98.57
74613;BME280;63119;51.788;8.824;2023-12-20T03:38:53;99743.22;;;7.15;99.30
74613;BME280;63119;51.788;8.824;2023-12-20T03:41:18;99743.81;;;7.20;99.07
74613;BME280;63119;51.788;8.824;2023-12-20T03:43:43;99743.47;;;7.26;98.76
74613;BME280;63119;51.788;8.824;2023-12-20T03:46:09;99742.00;;;7.21;99.65
74613;BME280;63119;51.788;8.824;2023-12-20T03:48:34;99753.41;;;7.21;99.98
74613;BME280;63119;51.788;8.824;2023-12-20T03:50:59;99747.19;;;7.22;100.00
74613;BME280;63119;51.788;8.824;2023-12-20T03:53:24;99742.81;;;7.07;100.00
74613;BME280;63119;51.788;8.824;2023-12-20T03:55:50;99740.41;;;7.18;99.72
74613;BME280;63119;51.788;8.824;2023-12-20T03:58:15;99735.69;;;7.09;100.00
74613;BME280;63119;51.788;8.824;2023-12-20T04:00:40;99730.25;;;7.12;100.00
74613;BME280;63119;51.788;8.824;2023-12-20T04:03:05;99733.06;;;7.09;100.00
74613;BME280;63119;51.788;8.824;2023-12-20T04:05:31;99725.94;;;7.11;100.00
74613;BME280;63119;51.788;8.824;2023-12-20T04:07:56;99741.53;;;7.14;99.81
74613;BME280;63119;51.788;8.824;2023-12-20T04:10:21;99736.94;;;7.18;99.95
74613;BME280;63119;51.788;8.824;2023-12-20T04:12:46;99731.94;;;7.13;100.00
74613;BME280;63119;51.788;8.824;2023-12-20T04:15:12;99743.41;;;7.12;99.50
74613;BME280;63119;51.788;8.824;2023-12-20T04:17:37;99754.63;;;7.00;100.00
74613;BME280;63119;51.788;8.824;2023-12-20T04:20:03;99737.53;;;6.93;100.00
74613;BME280;63119;51.788;8.824;2023-12-20T04:22:28;99749.34;;;7.15;99.16
74613;BME280;63119;51.788;8.824;2023-12-20T04:24:53;99751.66;;;7.06;99.99
74613;BME280;63119;51.788;8.824;2023-12-20T04:27:19;99738.84;;;7.00;99.77
74613;BME280;63119;51.788;8.824;2023-12-20T04:29:44;99728.94;;;7.05;99.88
74613;BME280;63119;51.788;8.824;2023-12-20T04:32:09;99727.06;;;6.91;99.47
74613;BME280;63119;51.788;8.824;2023-12-20T04:34:34;99734.38;;;7.02;98.31
74613;BME280;63119;51.788;8.824;2023-12-20T04:37:00;99737.63;;;7.05;98.03
74613;BME280;63119;51.788;8.824;2023-12-20T04:39:26;99739.00;;;6.97;98.31
74613;BME280;63119;51.788;8.824;2023-12-20T04:41:51;99736.22;;;7.00;98.13
74613;BME280;63119;51.788;8.824;2023-12-20T04:44:17;99725.50;;;7.03;98.30
74613;BME280;63119;51.788;8.824;2023-12-20T04:46:42;99727.03;;;7.07;97.05
74613;BME280;63119;51.788;8.824;2023-12-20T04:49:07;99731.09;;;7.12;97.18
74613;BME280;63119;51.788;8.824;2023-12-20T04:51:33;99723.19;;;7.12;97.06
74613;BME280;63119;51.788;8.824;2023-12-20T04:53:59;99723.31;;;7.11;97.68
74613;BME280;63119;51.788;8.824;2023-12-20T04:56:24;99724.47;;;7.05;96.48
74613;BME280;63119;51.788;8.824;2023-12-20T04:58:49;99720.84;;;7.08;96.82
74613;BME280;63119;51.788;8.824;2023-12-20T05:01:14;99728.16;;;7.03;96.61
74613;BME280;63119;51.788;8.824;2023-12-20T05:03:40;99721.97;;;7.04;96.61
74613;BME280;63119;51.788;8.824;2023-12-20T05:06:05;99726.28;;;7.05;97.42
74613;BME280;63119;51.788;8.824;2023-12-20T05:08:30;99722.69;;;7.06;96.65
74613;BME280;63119;51.788;8.824;2023-12-20T05:10:56;99725.94;;;7.11;96.22
74613;BME280;63119;51.788;8.824;2023-12-20T05:13:21;99728.41;;;7.14;96.14
74613;BME280;63119;51.788;8.824;2023-12-20T05:15:46;99725.34;;;7.06;96.18
74613;BME280;63119;51.788;8.824;2023-12-20T05:18:12;99720.94;;;7.06;96.02
74613;BME280;63119;51.788;8.824;2023-12-20T05:20:37;99724.97;;;7.12;95.92
74613;BME280;63119;51.788;8.824;2023-12-20T05:23:03;99726.88;;;7.10;95.92
74613;BME280;63119;51.788;8.824;2023-12-20T05:25:28;99724.38;;;6.93;96.78
74613;BME280;63119;51.788;8.824;2023-12-20T05:27:53;99733.06;;;6.93;97.30
74613;BME280;63119;51.788;8.824;2023-12-20T05:30:19;99729.53;;;6.94;97.18
74613;BME280;63119;51.788;8.824;2023-12-20T05:32:44;99728.25;;;7.01;96.76
74613;BME280;63119;51.788;8.824;2023-12-20T05:35:09;99732.84;;;6.98;97.18
74613;BME280;63119;51.788;8.824;2023-12-20T05:37:34;99730.78;;;7.03;96.96
74613;BME280;63119;51.788;8.824;2023-12-20T05:40:00;99723.88;;;6.86;96.80
74613;BME280;63119;51.788;8.824;2023-12-20T05:42:25;99723.34;;;6.95;97.23
74613;BME280;63119;51.788;8.824;2023-12-20T05:44:50;99725.97;;;6.95;96.95
74613;BME280;63119;51.788;8.824;2023-12-20T05:47:15;99715.84;;;7.03;96.55
74613;BME280;63119;51.788;8.824;2023-12-20T05:49:41;99713.66;;;6.96;96.25
74613;BME280;63119;51.788;8.824;2023-12-20T05:52:06;99711.91;;;6.81;96.82
74613;BME280;63119;51.788;8.824;2023-12-20T05:54:31;99719.09;;;6.93;96.85
74613;BME280;63119;51.788;8.824;2023-12-20T05:56:56;99720.97;;;6.91;96.60
74613;BME280;63119;51.788;8.824;2023-12-20T05:59:22;99724.75;;;7.01;96.56
74613;BME280;63119;51.788;8.824;2023-12-20T06:01:47;99723.34;;;6.95;96.91
74613;BME280;63119;51.788;8.824;2023-12-20T06:04:12;99722.59;;;6.78;97.26
74613;BME280;63119;51.788;8.824;2023-12-20T06:06:42;99729.88;;;6.88;97.53
74613;BME280;63119;51.788;8.824;2023-12-20T06:09:07;99737.06;;;7.00;96.72
74613;BME280;63119;51.788;8.824;2023-12-20T06:11:32;99722.66;;;6.92;96.66
74613;BME280;63119;51.788;8.824;2023-12-20T06:13:58;99728.94;;;6.89;96.58
74613;BME280;63119;51.788;8.824;2023-12-20T06:16:23;99732.78;;;6.84;96.65
74613;BME280;63119;51.788;8.824;2023-12-20T06:18:48;99731.31;;;6.94;96.68
74613;BME280;63119;51.788;8.824;2023-12-20T06:21:13;99733.44;;;6.87;96.64
74613;BME280;63119;51.788;8.824;2023-12-20T06:23:39;99723.34;;;6.80;96.79
74613;BME280;63119;51.788;8.824;2023-12-20T06:26:04;99734.78;;;6.94;96.64
74613;BME280;63119;51.788;8.824;2023-12-20T06:28:30;99730.38;;;6.95;96.65
74613;BME280;63119;51.788;8.824;2023-12-20T06:30:55;99728.25;;;7.01;96.31
74613;BME280;63119;51.788;8.824;2023-12-20T06:33:21;99724.38;;;6.93;96.76
74613;BME280;63119;51.788;8.824;2023-12-20T06:35:47;99729.88;;;6.88;96.57
74613;BME280;63119;51.788;8.824;2023-12-20T06:38:12;99730.56;;;6.92;96.60
74613;BME280;63119;51.788;8.824;2023-12-20T06:40:38;99738.78;;;7.01;96.61
74613;BME280;63119;51.788;8.824;2023-12-20T06:43:03;99740.06;;;6.79;97.59
74613;BME280;63119;51.788;8.824;2023-12-20T06:45:28;99737.25;;;6.97;97.59
74613;BME280;63119;51.788;8.824;2023-12-20T06:47:54;99738.84;;;6.84;97.96
74613;BME280;63119;51.788;8.824;2023-12-20T06:50:20;99757.09;;;6.87;98.35
74613;BME280;63119;51.788;8.824;2023-12-20T06:52:45;99747.59;;;6.85;99.41
74613;BME280;63119;51.788;8.824;2023-12-20T06:55:10;99732.09;;;6.80;98.38
74613;BME280;63119;51.788;8.824;2023-12-20T06:57:35;99737.44;;;6.63;99.65
74613;BME280;63119;51.788;8.824;2023-12-20T07:00:02;99732.34;;;6.76;99.01
74613;BME280;63119;51.788;8.824;2023-12-20T07:02:27;99710.97;;;6.82;98.79
74613;BME280;63119;51.788;8.824;2023-12-20T07:04:55;99735.06;;;6.90;98.51
74613;BME280;63119;51.788;8.824;2023-12-20T07:07:20;99735.63;;;6.95;98.20
74613;BME280;63119;51.788;8.824;2023-12-20T07:09:46;99740.19;;;7.07;98.36
74613;BME280;63119;51.788;8.824;2023-12-20T07:12:11;99725.72;;;6.84;98.41
74613;BME280;63119;51.788;8.824;2023-12-20T07:14:36;99734.88;;;6.93;98.52
74613;BME280;63119;51.788;8.824;2023-12-20T07:17:02;99725.00;;;6.96;98.57
74613;BME280;63119;51.788;8.824;2023-12-20T07:19:28;99724.72;;;6.87;98.24
74613;BME280;63119;51.788;8.824;2023-12-20T07:21:53;99736.00;;;6.89;99.21
74613;BME280;63119;51.788;8.824;2023-12-20T07:24:18;99727.53;;;6.84;98.61
74613;BME280;63119;51.788;8.824;2023-12-20T07:26:43;99734.03;;;6.92;98.37
74613;BME280;63119;51.788;8.824;2023-12-20T07:29:09;99749.31;;;6.86;98.24
74613;BME280;63119;51.788;8.824;2023-12-20T07:31:34;99727.91;;;6.92;98.18
74613;BME280;63119;51.788;8.824;2023-12-20T07:34:00;99740.72;;;6.98;97.49
74613;BME280;63119;51.788;8.824;2023-12-20T07:36:25;99736.91;;;6.88;98.26
74613;BME280;63119;51.788;8.824;2023-12-20T07:38:50;99743.53;;;6.79;98.50
74613;BME280;63119;51.788;8.824;2023-12-20T07:41:15;99734.72;;;6.96;98.34
74613;BME280;63119;51.788;8.824;2023-12-20T07:43:41;99736.22;;;6.84;98.10
74613;BME280;63119;51.788;8.824;2023-12-20T07:46:07;99730.50;;;6.78;98.67
74613;BME280;63119;51.788;8.824;2023-12-20T07:48:36;99737.94;;;6.85;98.75
74613;BME280;63119;51.788;8.824;2023-12-20T07:51:17;99738.78;;;6.86;97.89
74613;BME280;63119;51.788;8.824;2023-12-20T07:53:42;99741.31;;;6.87;97.56
74613;BME280;63119;51.788;8.824;2023-12-20T07:56:17;99740.03;;;6.94;97.30
74613;BME280;63119;51.788;8.824;2023-12-20T07:58:43;99728.94;;;6.89;97.78
74613;BME280;63119;51.788;8.824;2023-12-20T08:01:09;99730.97;;;6.84;97.59
74613;BME280;63119;51.788;8.824;2023-12-20T08:03:34;99734.91;;;6.77;97.61
74613;BME280;63119;51.788;8.824;2023-12-20T08:06:00;99724.78;;;6.85;97.39
74613;BME280;63119;51.788;8.824;2023-12-20T08:08:25;99729.44;;;6.96;96.38
74613;BME280;63119;51.788;8.824;2023-12-20T08:10:51;99744.22;;;6.83;96.46
74613;BME280;63119;51.788;8.824;2023-12-20T08:13:16;99753.66;;;6.87;95.76
74613;BME280;63119;51.788;8.824;2023-12-20T08:20:44;99738.63;;;6.89;95.48
74613;BME280;63119;51.788;8.824;2023-12-20T08:23:09;99750.22;;;6.85;95.42
74613;BME280;63119;51.788;8.824;2023-12-20T08:25:34;99731.66;;;6.88;95.50
74613;BME280;63119;51.788;8.824;2023-12-20T08:28:02;99732.16;;;6.94;94.89
74613;BME280;63119;51.788;8.824;2023-12-20T08:30:27;99738.09;;;6.98;94.66
74613;BME280;63119;51.788;8.824;2023-12-20T08:32:52;99735.34;;;6.99;95.17
74613;BME280;63119;51.788;8.824;2023-12-20T08:35:17;99740.63;;;6.99;95.55
74613;BME280;63119;51.788;8.824;2023-12-20T08:37:43;99729.63;;;6.93;95.59
74613;BME280;63119;51.788;8.824;2023-12-20T08:40:09;99722.09;;;6.87;95.37
74613;BME280;63119;51.788;8.824;2023-12-20T08:42:35;99731.47;;;6.91;95.84
74613;BME280;63119;51.788;8.824;2023-12-20T08:45:00;99722.66;;;6.92;96.38
74613;BME280;63119;51.788;8.824;2023-12-20T08:47:25;99717.75;;;6.86;97.06
74613;BME280;63119;51.788;8.824;2023-12-20T08:49:50;99714.19;;;6.87;96.32
74613;BME280;63119;51.788;8.824;2023-12-20T08:52:16;99708.59;;;6.93;96.51
74613;BME280;63119;51.788;8.824;2023-12-20T08:54:41;99712.31;;;6.89;96.03
74613;BME280;63119;51.788;8.824;2023-12-20T08:57:06;99712.03;;;6.93;96.51
74613;BME280;63119;51.788;8.824;2023-12-20T08:59:32;99709.91;;;7.00;96.02
74613;BME280;63119;51.788;8.824;2023-12-20T09:01:58;99706.31;;;6.87;96.70
74613;BME280;63119;51.788;8.824;2023-12-20T09:04:25;99707.91;;;6.89;96.06
74613;BME280;63119;51.788;8.824;2023-12-20T09:06:51;99702.81;;;6.86;95.83
74613;BME280;63119;51.788;8.824;2023-12-20T09:09:16;99699.56;;;6.97;95.78
74613;BME280;63119;51.788;8.824;2023-12-20T09:11:41;99700.53;;;6.96;95.00
74613;BME280;63119;51.788;8.824;2023-12-20T09:14:07;99702.38;;;6.94;95.51
74613;BME280;63119;51.788;8.824;2023-12-20T09:16:32;99695.66;;;7.04;95.29
74613;BME280;63119;51.788;8.824;2023-12-20T09:18:58;99695.47;;;7.07;94.56
74613;BME280;63119;51.788;8.824;2023-12-20T09:21:23;99692.44;;;6.99;95.65
74613;BME280;63119;51.788;8.824;2023-12-20T09:23:49;99684.09;;;7.06;94.76
74613;BME280;63119;51.788;8.824;2023-12-20T09:26:14;99681.22;;;7.11;94.63
74613;BME280;63119;51.788;8.824;2023-12-20T09:28:39;99681.56;;;7.05;93.87
74613;BME280;63119;51.788;8.824;2023-12-20T09:31:05;99679.22;;;7.14;94.09
74613;BME280;63119;51.788;8.824;2023-12-20T09:33:31;99675.13;;;6.95;94.43
74613;BME280;63119;51.788;8.824;2023-12-20T09:35:57;99667.06;;;6.98;94.71
74613;BME280;63119;51.788;8.824;2023-12-20T09:38:22;99670.19;;;7.04;94.45
74613;BME280;63119;51.788;8.824;2023-12-20T09:40:47;99669.91;;;7.09;95.08
74613;BME280;63119;51.788;8.824;2023-12-20T09:43:19;99666.00;;;7.16;95.11
74613;BME280;63119;51.788;8.824;2023-12-20T09:45:46;99669.72;;;7.12;94.61
74613;BME280;63119;51.788;8.824;2023-12-20T09:48:12;99667.47;;;7.06;94.94
74613;BME280;63119;51.788;8.824;2023-12-20T09:50:40;99652.63;;;7.05;94.39
74613;BME280;63119;51.788;8.824;2023-12-20T09:53:07;99631.78;;;7.16;94.58
74613;BME280;63119;51.788;8.824;2023-12-20T09:55:35;99642.63;;;7.26;95.18
74613;BME280;63119;51.788;8.824;2023-12-20T09:58:00;99639.22;;;7.24;96.04
74613;BME280;63119;51.788;8.824;2023-12-20T10:00:26;99647.97;;;7.24;95.21
74613;BME280;63119;51.788;8.824;2023-12-20T10:02:58;99647.28;;;7.21;95.27
74613;BME280;63119;51.788;8.824;2023-12-20T10:05:31;99639.31;;;7.22;95.05
74613;BME280;63119;51.788;8.824;2023-12-20T10:07:57;99647.94;;;7.10;95.15
74613;BME280;63119;51.788;8.824;2023-12-20T10:10:23;99641.47;;;7.15;95.70
74613;BME280;63119;51.788;8.824;2023-12-20T10:13:05;99638.94;;;7.14;95.45
74613;BME280;63119;51.788;8.824;2023-12-20T10:15:35;99641.66;;;7.27;95.50
74613;BME280;63119;51.788;8.824;2023-12-20T10:18:01;99637.44;;;7.24;95.62
74613;BME280;63119;51.788;8.824;2023-12-20T10:20:27;99631.59;;;7.19;96.11
74613;BME280;63119;51.788;8.824;2023-12-20T10:22:54;99631.97;;;7.13;96.05
74613;BME280;63119;51.788;8.824;2023-12-20T10:25:20;99638.94;;;7.14;95.76
74613;BME280;63119;51.788;8.824;2023-12-20T10:27:46;99641.75;;;7.11;96.51
74613;BME280;63119;51.788;8.824;2023-12-20T10:30:11;99629.22;;;7.14;95.93
74613;BME280;63119;51.788;8.824;2023-12-20T10:32:37;99626.34;;;7.05;96.75
74613;BME280;63119;51.788;8.824;2023-12-20T10:35:02;99622.00;;;7.18;97.25
74613;BME280;63119;51.788;8.824;2023-12-20T10:37:27;99622.78;;;7.20;96.11
74613;BME280;63119;51.788;8.824;2023-12-20T10:39:54;99608.31;;;7.27;95.91
74613;BME280;63119;51.788;8.824;2023-12-20T10:42:27;99609.53;;;7.22;96.88
74613;BME280;63119;51.788;8.824;2023-12-20T10:44:52;99614.53;;;7.26;97.06
74613;BME280;63119;51.788;8.824;2023-12-20T10:47:19;99602.97;;;7.29;96.59
74613;BME280;63119;51.788;8.824;2023-12-20T10:49:45;99602.28;;;7.25;96.58
74613;BME280;63119;51.788;8.824;2023-12-20T10:52:11;99597.59;;;7.30;95.96
74613;BME280;63119;51.788;8.824;2023-12-20T10:54:37;99607.38;;;7.42;96.21
74613;BME280;63119;51.788;8.824;2023-12-20T10:57:05;99589.69;;;7.30;96.44
74613;BME280;63119;51.788;8.824;2023-12-20T10:59:33;99588.03;;;7.29;96.99
74613;BME280;63119;51.788;8.824;2023-12-20T11:01:59;99601.91;;;7.17;97.42
74613;BME280;63119;51.788;8.824;2023-12-20T11:04:30;99596.28;;;7.23;97.65
74613;BME280;63119;51.788;8.824;2023-12-20T11:07:07;99595.44;;;7.23;98.82
74613;BME280;63119;51.788;8.824;2023-12-20T11:09:41;99597.28;;;7.21;99.79
74613;BME280;63119;51.788;8.824;2023-12-20T11:12:22;99603.03;;;7.27;99.65
74613;BME280;63119;51.788;8.824;2023-12-20T11:14:53;99599.09;;;7.20;100.00
74613;BME280;63119;51.788;8.824;2023-12-20T11:17:20;99597.09;;;7.24;100.00
74613;BME280;63119;51.788;8.824;2023-12-20T11:22:17;99594.41;;;7.25;98.54
74613;BME280;63119;51.788;8.824;2023-12-20T11:24:44;99602.66;;;7.19;99.39
74613;BME280;63119;51.788;8.824;2023-12-20T11:27:10;99590.06;;;7.24;98.94
74613;BME280;63119;51.788;8.824;2023-12-20T11:29:36;99596.66;;;7.31;98.80
74613;BME280;63119;51.788;8.824;2023-12-20T11:32:03;99589.44;;;7.35;98.02
74613;BME280;63119;51.788;8.824;2023-12-20T11:34:33;99603.63;;;7.32;98.10
74613;BME280;63119;51.788;8.824;2023-12-20T11:37:00;99598.38;;;7.32;98.55
74613;BME280;63119;51.788;8.824;2023-12-20T11:39:26;99582.75;;;7.29;98.99
74613;BME280;63119;51.788;8.824;2023-12-20T11:41:54;99594.41;;;7.25;98.50
74613;BME280;63119;51.788;8.824;2023-12-20T11:44:21;99587.44;;;7.24;98.62
74613;BME280;63119;51.788;8.824;2023-12-20T11:46:46;99586.13;;;7.31;98.33
74613;BME280;63119;51.788;8.824;2023-12-20T11:49:12;99579.56;;;7.38;98.04
74613;BME280;63119;51.788;8.824;2023-12-20T11:51:41;99585.47;;;7.28;98.83
74613;BME280;63119;51.788;8.824;2023-12-20T11:54:06;99584.16;;;7.35;98.88
74613;BME280;63119;51.788;8.824;2023-12-20T11:56:31;99576.09;;;7.38;99.00
74613;BME280;63119;51.788;8.824;2023-12-20T11:58:57;99576.16;;;7.36;99.19
74613;BME280;63119;51.788;8.824;2023-12-20T12:01:22;99571.38;;;7.43;98.20
74613;BME280;63119;51.788;8.824;2023-12-20T12:03:47;99579.38;;;7.41;97.87
74613;BME280;63119;51.788;8.824;2023-12-20T12:06:12;99573.44;;;7.38;97.85
74613;BME280;63119;51.788;8.824;2023-12-20T12:08:38;99556.31;;;7.45;97.59
74613;BME280;63119;51.788;8.824;2023-12-20T12:11:04;99553.50;;;7.48;98.08
74613;BME280;63119;51.788;8.824;2023-12-20T12:13:29;99559.16;;;7.56;97.38
74613;BME280;63119;51.788;8.824;2023-12-20T12:15:55;99549.16;;;7.61;97.23
74613;BME280;63119;51.788;8.824;2023-12-20T12:18:20;99547.22;;;7.50;96.31
74613;BME280;63119;51.788;8.824;2023-12-20T12:20:45;99550.09;;;7.60;97.71
74613;BME280;63119;51.788;8.824;2023-12-20T12:23:10;99549.28;;;7.59;97.64
74613;BME280;63119;51.788;8.824;2023-12-20T12:25:36;99553.19;;;7.66;100.00
74613;BME280;63119;51.788;8.824;2023-12-20T12:28:05;99548.50;;;7.72;98.24
74613;BME280;63119;51.788;8.824;2023-12-20T12:30:30;99547.75;;;7.55;97.70
74613;BME280;63119;51.788;8.824;2023-12-20T12:32:56;99551.53;;;7.65;97.58
74613;BME280;63119;51.788;8.824;2023-12-20T12:35:21;99557.25;;;7.58;97.66
74613;BME280;63119;51.788;8.824;2023-12-20T12:37:46;99548.13;;;7.63;96.43
74613;BME280;63119;51.788;8.824;2023-12-20T12:40:13;99551.34;;;7.68;97.57
74613;BME280;63119;51.788;8.824;2023-12-20T12:42:39;99535.03;;;7.76;95.74
74613;BME280;63119;51.788;8.824;2023-12-20T12:45:06;99539.56;;;7.60;96.44
74613;BME280;63119;51.788;8.824;2023-12-20T12:47:31;99537.00;;;7.72;96.11
74613;BME280;63119;51.788;8.824;2023-12-20T12:49:57;99530.28;;;7.68;95.45
74613;BME280;63119;51.788;8.824;2023-12-20T12:52:23;99528.94;;;7.61;96.17
74613;BME280;63119;51.788;8.824;2023-12-20T12:54:48;99533.56;;;7.58;95.88
74613;BME280;63119;51.788;8.824;2023-12-20T12:57:14;99517.09;;;7.54;95.56
74613;BME280;63119;51.788;8.824;2023-12-20T12:59:40;99520.56;;;7.69;95.22
74613;BME280;63119;51.788;8.824;2023-12-20T13:02:06;99517.69;;;7.59;94.50
74613;BME280;63119;51.788;8.824;2023-12-20T13:04:31;99519.94;;;7.65;95.21
74613;BME280;63119;51.788;8.824;2023-12-20T13:06:56;99519.28;;;7.62;94.39